sensor_id;sensor_type;location;lat;lon;timestamp;pressure;altitude;pressure_sealevel;temperature;humidity
13604;BME280;24578;48.264;11.436;2023-04-03T00:02:41;96719.56;;;1.78;100.00
13604;BME280;24578;48.264;11.436;2023-04-03T00:06:03;96724.72;;;1.76;100.00
13604;BME280;24578;48.264;11.436;2023-04-03T00:09:28;96727.53;;;1.67;100.00
13604;BME280;24578;48.264;11.436;2023-04-03T00:12:49;96720.66;;;1.69;100.00
13604;BME280;24578;48.264;11.436;2023-04-03T00:16:12;96714.75;;;1.67;100.00
13604;BME280;24578;48.264;11.436;2023-04-03T00:19:33;96720.66;;;1.69;100.00
13604;BME280;24578;48.264;11.436;2023-04-03T00:22:56;96722.16;;;1.76;100.00
13604;BME280;24578;48.264;11.436;2023-04-03T00:26:18;96724.09;;;1.68;100.00
13604;BME280;24578;48.264;11.436;2023-04-03T00:29:39;96722.16;;;1.76;100.00
13604;BME280;24578;48.264;11.436;2023-04-03T00:33:01;96722.25;;;1.73;100.00
13604;BME280;24578;48.264;11.436;2023-04-03T00:36:23;96717.28;;;1.69;100.00
13604;BME280;24578;48.264;11.436;2023-04-03T00:39:45;96719.78;;;1.70;100.00
13604;BME280;24578;48.264;11.436;2023-04-03T00:43:16;96723.94;;;1.74;100.00
13604;BME280;24578;48.264;11.436;2023-04-03T00:46:38;96715.53;;;1.71;100.00
13604;BME280;24578;48.264;11.436;2023-04-03T00:50:01;96711.25;;;1.71;100.00
13604;BME280;24578;48.264;11.436;2023-04-03T00:53:44;96727.66;;;1.62;100.00
13604;BME280;24578;48.264;11.436;2023-04-03T00:57:08;96719.34;;;1.56;100.00
13604;BME280;24578;48.264;11.436;2023-04-03T01:00:31;96717.97;;;1.44;100.00
13604;BME280;24578;48.264;11.436;2023-04-03T01:03:53;96719.09;;;1.33;100.00
13604;BME280;24578;48.264;11.436;2023-04-03T01:07:19;96721.78;;;1.29;100.00
13604;BME280;24578;48.264;11.436;2023-04-03T01:10:42;96720.03;;;1.31;100.00
13604;BME280;24578;48.264;11.436;2023-04-03T01:14:03;96722.47;;;1.35;100.00
13604;BME280;24578;48.264;11.436;2023-04-03T01:17:31;96726.72;;;1.35;100.00
13604;BME280;24578;48.264;11.436;2023-04-03T01:24:56;96723.28;;;1.36;100.00
13604;BME280;24578;48.264;11.436;2023-04-03T01:31:53;96723.47;;;1.30;100.00
13604;BME280;24578;48.264;11.436;2023-04-03T01:35:15;96735.25;;;1.34;100.00
13604;BME280;24578;48.264;11.436;2023-04-03T01:38:37;96729.94;;;1.42;100.00
13604;BME280;24578;48.264;11.436;2023-04-03T01:41:59;96729.72;;;1.49;100.00
13604;BME280;24578;48.264;11.436;2023-04-03T01:45:21;96723.84;;;1.47;100.00
13604;BME280;24578;48.264;11.436;2023-04-03T01:48:42;96712.78;;;1.47;100.00
13604;BME280;24578;48.264;11.436;2023-04-03T01:52:04;96704.19;;;1.49;100.00
13604;BME280;24578;48.264;11.436;2023-04-03T01:55:26;96720.31;;;1.51;100.00
13604;BME280;24578;48.264;11.436;2023-04-03T01:58:48;96716.88;;;1.52;100.00
13604;BME280;24578;48.264;11.436;2023-04-03T02:02:09;96718.53;;;1.55;100.00
13604;BME280;24578;48.264;11.436;2023-04-03T02:05:34;96726.84;;;1.62;100.00
13604;BME280;24578;48.264;11.436;2023-04-03T02:08:56;96719.28;;;1.57;100.00
13604;BME280;24578;48.264;11.436;2023-04-03T02:12:18;96719.25;;;1.59;100.00
13604;BME280;24578;48.264;11.436;2023-04-03T02:15:40;96718.47;;;1.57;100.00
13604;BME280;24578;48.264;11.436;2023-04-03T02:19:02;96723.56;;;1.57;100.00
13604;BME280;24578;48.264;11.436;2023-04-03T02:22:24;96708.31;;;1.55;100.00
13604;BME280;24578;48.264;11.436;2023-04-03T02:25:45;96711.59;;;1.59;100.00
13604;BME280;24578;48.264;11.436;2023-04-03T02:29:07;96714.16;;;1.59;100.00
13604;BME280;24578;48.264;11.436;2023-04-03T02:32:29;96711.53;;;1.62;100.00
13604;BME280;24578;48.264;11.436;2023-04-03T02:35:55;96715.75;;;1.63;100.00
13604;BME280;24578;48.264;11.436;2023-04-03T02:39:17;96709.72;;;1.65;100.00
13604;BME280;24578;48.264;11.436;2023-04-03T02:42:39;96701.09;;;1.70;100.00
13604;BME280;24578;48.264;11.436;2023-04-03T02:46:01;96712.91;;;1.72;100.00
13604;BME280;24578;48.264;11.436;2023-04-03T02:49:22;96706.88;;;1.75;100.00
13604;BME280;24578;48.264;11.436;2023-04-03T02:52:44;96708.47;;;1.79;100.00
13604;BME280;24578;48.264;11.436;2023-04-03T02:56:06;96715.25;;;1.80;100.00
13604;BME280;24578;48.264;11.436;2023-04-03T02:59:27;96716.19;;;1.77;100.00
13604;BME280;24578;48.264;11.436;2023-04-03T03:02:49;96717.78;;;1.80;100.00
13604;BME280;24578;48.264;11.436;2023-04-03T03:06:14;96718.69;;;1.79;100.00
13604;BME280;24578;48.264;11.436;2023-04-03T03:09:36;96724.50;;;1.84;100.00
13604;BME280;24578;48.264;11.436;2023-04-03T03:12:58;96713.19;;;1.91;100.00
13604;BME280;24578;48.264;11.436;2023-04-03T03:16:20;96706.50;;;1.87;100.00
13604;BME280;24578;48.264;11.436;2023-04-03T03:19:42;96716.59;;;1.92;100.00
13604;BME280;24578;48.264;11.436;2023-04-03T03:23:03;96707.28;;;1.89;100.00
13604;BME280;24578;48.264;11.436;2023-04-03T03:26:25;96714.28;;;1.84;100.00
13604;BME280;24578;48.264;11.436;2023-04-03T03:29:47;96711.97;;;1.76;100.00
13604;BME280;24578;48.264;11.436;2023-04-03T03:33:09;96707.59;;;1.80;100.00
13604;BME280;24578;48.264;11.436;2023-04-03T03:36:31;96718.59;;;1.82;100.00
13604;BME280;24578;48.264;11.436;2023-04-03T03:39:53;96716.69;;;1.89;100.00
13604;BME280;24578;48.264;11.436;2023-04-03T03:43:15;96718.38;;;1.90;100.00
13604;BME280;24578;48.264;11.436;2023-04-03T03:46:37;96717.78;;;1.80;100.00
13604;BME280;24578;48.264;11.436;2023-04-03T03:49:59;96714.28;;;1.84;100.00
13604;BME280;24578;48.264;11.436;2023-04-03T03:53:20;96729.47;;;1.89;100.00
13604;BME280;24578;48.264;11.436;2023-04-03T03:56:42;96721.72;;;1.92;100.00
13604;BME280;24578;48.264;11.436;2023-04-03T04:00:05;96727.88;;;1.85;100.00
13604;BME280;24578;48.264;11.436;2023-04-03T04:03:28;96718.63;;;1.80;100.00
13604;BME280;24578;48.264;11.436;2023-04-03T04:06:50;96720.41;;;1.78;100.00
13604;BME280;24578;48.264;11.436;2023-04-03T04:10:12;96723.63;;;1.83;100.00
13604;BME280;24578;48.264;11.436;2023-04-03T04:13:35;96721.72;;;1.92;100.00
13604;BME280;24578;48.264;11.436;2023-04-03T04:16:56;96721.22;;;1.79;100.00
13604;BME280;24578;48.264;11.436;2023-04-03T04:20:18;96723.88;;;1.76;100.00
13604;BME280;24578;48.264;11.436;2023-04-03T04:23:40;96720.22;;;1.85;100.00
13604;BME280;24578;48.264;11.436;2023-04-03T04:27:02;96720.56;;;1.72;100.00
13604;BME280;24578;48.264;11.436;2023-04-03T04:30:24;96723.88;;;1.76;100.00
13604;BME280;24578;48.264;11.436;2023-04-03T04:33:46;96726.38;;;1.77;100.00
13604;BME280;24578;48.264;11.436;2023-04-03T04:37:07;96733.16;;;1.78;100.00
13604;BME280;24578;48.264;11.436;2023-04-03T04:40:29;96728.75;;;1.83;100.00
13604;BME280;24578;48.264;11.436;2023-04-03T04:43:51;96736.38;;;1.85;100.00
13604;BME280;24578;48.264;11.436;2023-04-03T04:47:13;96740.53;;;1.88;100.00
13604;BME280;24578;48.264;11.436;2023-04-03T04:50:35;96740.63;;;1.85;100.00
13604;BME280;24578;48.264;11.436;2023-04-03T04:53:56;96742.44;;;1.81;100.00
13604;BME280;24578;48.264;11.436;2023-04-03T04:57:18;96731.50;;;1.77;100.00
13604;BME280;24578;48.264;11.436;2023-04-03T05:00:40;96737.34;;;1.81;100.00
13604;BME280;24578;48.264;11.436;2023-04-03T05:04:02;96735.66;;;1.80;100.00
13604;BME280;24578;48.264;11.436;2023-04-03T05:07:24;96741.50;;;1.83;100.00
13604;BME280;24578;48.264;11.436;2023-04-03T05:10:46;96738.72;;;1.93;100.00
13604;BME280;24578;48.264;11.436;2023-04-03T05:14:08;96753.22;;;1.91;100.00
13604;BME280;24578;48.264;11.436;2023-04-03T05:17:30;96747.25;;;1.92;100.00
13604;BME280;24578;48.264;11.436;2023-04-03T05:20:52;96750.59;;;1.94;100.00
13604;BME280;24578;48.264;11.436;2023-04-03T05:24:14;96751.47;;;1.93;100.00
13604;BME280;24578;48.264;11.436;2023-04-03T05:27:36;96750.59;;;1.94;100.00
13604;BME280;24578;48.264;11.436;2023-04-03T05:30:59;96749.56;;;2.00;100.00
13604;BME280;24578;48.264;11.436;2023-04-03T05:34:20;96756.38;;;1.99;100.00
13604;BME280;24578;48.264;11.436;2023-04-03T05:37:42;96753.59;;;2.07;100.00
13604;BME280;24578;48.264;11.436;2023-04-03T05:41:05;96750.81;;;2.15;100.00
13604;BME280;24578;48.264;11.436;2023-04-03T05:44:27;96748.88;;;2.23;100.00
13604;BME280;24578;48.264;11.436;2023-04-03T05:47:48;96750.50;;;2.25;100.00
13604;BME280;24578;48.264;11.436;2023-04-03T05:51:16;96753.59;;;2.35;100.00
13604;BME280;24578;48.264;11.436;2023-04-03T05:54:38;96751.84;;;2.37;100.00
13604;BME280;24578;48.264;11.436;2023-04-03T05:58:00;96743.88;;;2.47;100.00
13604;BME280;24578;48.264;11.436;2023-04-03T06:01:23;96756.50;;;2.51;100.00
13604;BME280;24578;48.264;11.436;2023-04-03T06:04:44;96755.84;;;2.44;100.00
13604;BME280;24578;48.264;11.436;2023-04-03T06:08:06;96750.31;;;2.58;100.00
13604;BME280;24578;48.264;11.436;2023-04-03T06:11:28;96761.03;;;2.70;100.00
13604;BME280;24578;48.264;11.436;2023-04-03T06:14:50;96769.41;;;2.73;100.00
13604;BME280;24578;48.264;11.436;2023-04-03T06:18:12;96764.22;;;2.77;100.00
13604;BME280;24578;48.264;11.436;2023-04-03T06:21:34;96767.13;;;2.93;100.00
13604;BME280;24578;48.264;11.436;2023-04-03T06:24:57;96764.00;;;3.10;100.00
13604;BME280;24578;48.264;11.436;2023-04-03T06:28:19;96768.28;;;3.09;100.00
13604;BME280;24578;48.264;11.436;2023-04-03T06:31:40;96761.13;;;3.19;100.00
13604;BME280;24578;48.264;11.436;2023-04-03T06:35:03;96777.66;;;3.34;100.00
13604;BME280;24578;48.264;11.436;2023-04-03T06:38:25;96767.88;;;3.45;100.00
13604;BME280;24578;48.264;11.436;2023-04-03T06:41:46;96784.75;;;3.51;100.00
13604;BME280;24578;48.264;11.436;2023-04-03T06:45:10;96768.28;;;3.58;100.00
13604;BME280;24578;48.264;11.436;2023-04-03T06:48:34;96773.34;;;3.60;100.00
13604;BME280;24578;48.264;11.436;2023-04-03T06:51:56;96787.34;;;3.75;100.00
13604;BME280;24578;48.264;11.436;2023-04-03T06:55:18;96776.75;;;3.84;100.00
13604;BME280;24578;48.264;11.436;2023-04-03T06:58:40;96778.09;;;3.94;100.00
13604;BME280;24578;48.264;11.436;2023-04-03T07:02:03;96780.22;;;4.05;100.00
13604;BME280;24578;48.264;11.436;2023-04-03T07:05:26;96772.22;;;4.15;100.00
13604;BME280;24578;48.264;11.436;2023-04-03T07:08:48;96784.75;;;4.22;100.00
13604;BME280;24578;48.264;11.436;2023-04-03T07:12:10;96781.09;;;4.28;100.00
13604;BME280;24578;48.264;11.436;2023-04-03T07:15:32;96798.34;;;4.24;100.00
13604;BME280;24578;48.264;11.436;2023-04-03T07:18:54;96799.56;;;4.36;100.00
13604;BME280;24578;48.264;11.436;2023-04-03T07:22:17;96805.19;;;4.46;100.00
13604;BME280;24578;48.264;11.436;2023-04-03T07:25:47;96805.97;;;4.48;100.00
13604;BME280;24578;48.264;11.436;2023-04-03T07:29:09;96804.19;;;4.50;100.00
13604;BME280;24578;48.264;11.436;2023-04-03T07:32:31;96806.97;;;4.44;100.00
13604;BME280;24578;48.264;11.436;2023-04-03T07:35:53;96811.09;;;4.48;100.00
13604;BME280;24578;48.264;11.436;2023-04-03T07:39:14;96818.31;;;4.61;100.00
13604;BME280;24578;48.264;11.436;2023-04-03T07:42:36;96823.63;;;4.56;100.00
13604;BME280;24578;48.264;11.436;2023-04-03T07:45:58;96819.84;;;4.42;100.00
13604;BME280;24578;48.264;11.436;2023-04-03T07:49:20;96814.06;;;4.60;100.00
13604;BME280;24578;48.264;11.436;2023-04-03T07:52:45;96813.53;;;4.73;100.00
13604;BME280;24578;48.264;11.436;2023-04-03T07:56:08;96815.91;;;4.78;100.00
13604;BME280;24578;48.264;11.436;2023-04-03T07:59:31;96819.66;;;4.92;100.00
13604;BME280;24578;48.264;11.436;2023-04-03T08:02:52;96823.66;;;4.99;100.00
13604;BME280;24578;48.264;11.436;2023-04-03T08:06:14;96829.13;;;5.12;100.00
13604;BME280;24578;48.264;11.436;2023-04-03T08:09:36;96831.16;;;5.03;100.00
13604;BME280;24578;48.264;11.436;2023-04-03T08:12:59;96824.34;;;5.02;100.00
13604;BME280;24578;48.264;11.436;2023-04-03T08:16:24;96834.38;;;5.09;100.00
13604;BME280;24578;48.264;11.436;2023-04-03T08:19:49;96834.22;;;5.34;100.00
13604;BME280;24578;48.264;11.436;2023-04-03T08:23:10;96831.38;;;5.40;100.00
13604;BME280;24578;48.264;11.436;2023-04-03T08:26:33;96833.03;;;5.41;100.00
13604;BME280;24578;48.264;11.436;2023-04-03T08:29:56;96830.22;;;5.47;100.00
13604;BME280;24578;48.264;11.436;2023-04-03T08:33:18;96819.75;;;5.73;100.00
13604;BME280;24578;48.264;11.436;2023-04-03T08:36:40;96830.63;;;5.78;100.00
13604;BME280;24578;48.264;11.436;2023-04-03T08:40:05;96829.03;;;5.75;100.00
13604;BME280;24578;48.264;11.436;2023-04-03T08:43:41;96837.44;;;5.79;100.00
13604;BME280;24578;48.264;11.436;2023-04-03T08:47:22;96835.78;;;5.78;100.00
13604;BME280;24578;48.264;11.436;2023-04-03T08:50:51;96835.19;;;5.92;100.00
13604;BME280;24578;48.264;11.436;2023-04-03T08:54:36;96828.06;;;6.18;100.00
13604;BME280;24578;48.264;11.436;2023-04-03T08:58:03;96831.41;;;6.20;100.00
13604;BME280;24578;48.264;11.436;2023-04-03T09:01:33;96835.81;;;6.37;100.00
13604;BME280;24578;48.264;11.436;2023-04-03T09:04:55;96837.94;;;6.27;100.00
13604;BME280;24578;48.264;11.436;2023-04-03T09:08:30;96841.50;;;6.44;100.00
13604;BME280;24578;48.264;11.436;2023-04-03T09:15:33;96839.69;;;6.82;100.00
13604;BME280;24578;48.264;11.436;2023-04-03T09:19:20;96841.47;;;6.99;100.00
13604;BME280;24578;48.264;11.436;2023-04-03T09:22:43;96831.25;;;6.98;100.00
13604;BME280;24578;48.264;11.436;2023-04-03T09:26:10;96834.81;;;7.13;98.95
13604;BME280;24578;48.264;11.436;2023-04-03T09:29:40;96824.22;;;7.19;95.34
13604;BME280;24578;48.264;11.436;2023-04-03T09:33:06;96823.31;;;7.20;95.65
13604;BME280;24578;48.264;11.436;2023-04-03T09:36:55;96828.88;;;7.11;95.87
13604;BME280;24578;48.264;11.436;2023-04-03T09:43:53;96836.09;;;6.67;98.31
13604;BME280;24578;48.264;11.436;2023-04-03T09:51:00;96819.81;;;7.04;97.83
13604;BME280;24578;48.264;11.436;2023-04-03T09:54:37;96828.72;;;6.96;95.74
13604;BME280;24578;48.264;11.436;2023-04-03T09:58:04;96835.41;;;7.18;94.35
13604;BME280;24578;48.264;11.436;2023-04-03T10:02:00;96823.94;;;6.89;96.74
13604;BME280;24578;48.264;11.436;2023-04-03T10:05:33;96819.31;;;6.78;97.73
13604;BME280;24578;48.264;11.436;2023-04-03T10:09:05;96822.59;;;6.45;98.20
13604;BME280;24578;48.264;11.436;2023-04-03T10:12:27;96828.16;;;6.16;99.29
13604;BME280;24578;48.264;11.436;2023-04-03T10:16:07;96832.38;;;5.77;100.00
13604;BME280;24578;48.264;11.436;2023-04-03T10:19:47;96824.53;;;5.41;100.00
13604;BME280;24578;48.264;11.436;2023-04-03T10:23:24;96833.19;;;5.17;100.00
13604;BME280;24578;48.264;11.436;2023-04-03T10:34:23;96835.97;;;5.11;100.00
13604;BME280;24578;48.264;11.436;2023-04-03T10:56:22;96830.56;;;5.40;94.38
13604;BME280;24578;48.264;11.436;2023-04-03T10:59:53;96814.69;;;5.90;93.33
13604;BME280;24578;48.264;11.436;2023-04-03T11:03:38;96823.13;;;6.51;90.43
13604;BME280;24578;48.264;11.436;2023-04-03T11:07:26;96811.50;;;6.62;82.01
13604;BME280;24578;48.264;11.436;2023-04-03T11:10:51;96808.84;;;7.00;78.89
13604;BME280;24578;48.264;11.436;2023-04-03T11:18:06;96820.41;;;6.35;83.73
13604;BME280;24578;48.264;11.436;2023-04-03T11:21:54;96821.19;;;5.78;86.42
13604;BME280;24578;48.264;11.436;2023-04-03T11:25:23;96820.59;;;5.53;87.85
13604;BME280;24578;48.264;11.436;2023-04-03T11:28:45;96815.59;;;5.29;88.12
13604;BME280;24578;48.264;11.436;2023-04-03T11:32:44;96817.44;;;5.05;87.75
13604;BME280;24578;48.264;11.436;2023-04-03T11:36:21;96812.72;;;4.94;89.42
13604;BME280;24578;48.264;11.436;2023-04-03T11:40:00;96808.28;;;5.20;87.94
13604;BME280;24578;48.264;11.436;2023-04-03T11:43:28;96808.41;;;5.37;85.63
13604;BME280;24578;48.264;11.436;2023-04-03T11:46:57;96803.34;;;5.75;83.07
13604;BME280;24578;48.264;11.436;2023-04-03T12:01:48;96780.72;;;7.98;64.85
13604;BME280;24578;48.264;11.436;2023-04-03T12:05:27;96778.06;;;7.99;61.12
13604;BME280;24578;48.264;11.436;2023-04-03T12:08:53;96786.75;;;8.14;60.36
13604;BME280;24578;48.264;11.436;2023-04-03T12:12:28;96785.72;;;8.01;59.87
13604;BME280;24578;48.264;11.436;2023-04-03T12:15:54;96769.75;;;8.58;56.56
13604;BME280;24578;48.264;11.436;2023-04-03T12:19:35;96767.13;;;8.90;55.04
13604;BME280;24578;48.264;11.436;2023-04-03T12:23:23;96770.31;;;9.10;51.64
13604;BME280;24578;48.264;11.436;2023-04-03T12:30:25;96758.19;;;8.49;50.09
13604;BME280;24578;48.264;11.436;2023-04-03T12:34:18;96758.03;;;8.52;49.09
13604;BME280;24578;48.264;11.436;2023-04-03T12:55:53;96736.94;;;9.36;45.60
13604;BME280;24578;48.264;11.436;2023-04-03T12:59:24;96736.94;;;9.50;45.20
13604;BME280;24578;48.264;11.436;2023-04-03T13:02:47;96736.69;;;9.84;43.66
13604;BME280;24578;48.264;11.436;2023-04-03T13:06:32;96726.69;;;9.78;43.48
13604;BME280;24578;48.264;11.436;2023-04-03T13:10:00;96727.63;;;9.77;43.42
13604;BME280;24578;48.264;11.436;2023-04-03T13:13:22;96733.16;;;10.41;43.52
13604;BME280;24578;48.264;11.436;2023-04-03T13:17:20;96725.03;;;11.01;40.45
13604;BME280;24578;48.264;11.436;2023-04-03T13:20:42;96733.50;;;10.35;41.43
13604;BME280;24578;48.264;11.436;2023-04-03T13:24:04;96742.38;;;9.31;42.41
13604;BME280;24578;48.264;11.436;2023-04-03T13:27:30;96735.22;;;8.91;44.54
13604;BME280;24578;48.264;11.436;2023-04-03T13:34:19;96740.78;;;8.37;45.34
13604;BME280;24578;48.264;11.436;2023-04-03T13:37:57;96746.28;;;7.83;45.28
13604;BME280;24578;48.264;11.436;2023-04-03T13:41:35;96738.91;;;7.25;46.94
13604;BME280;24578;48.264;11.436;2023-04-03T13:45:24;96742.28;;;7.61;48.01
13604;BME280;24578;48.264;11.436;2023-04-03T13:48:51;96734.59;;;7.93;43.64
13604;BME280;24578;48.264;11.436;2023-04-03T13:52:32;96728.91;;;7.86;44.06
13604;BME280;24578;48.264;11.436;2023-04-03T13:55:59;96733.81;;;8.07;43.33
13604;BME280;24578;48.264;11.436;2023-04-03T13:59:25;96723.41;;;8.25;42.78
13604;BME280;24578;48.264;11.436;2023-04-03T14:02:48;96716.75;;;8.36;41.64
13604;BME280;24578;48.264;11.436;2023-04-03T14:06:13;96723.44;;;8.71;41.25
13604;BME280;24578;48.264;11.436;2023-04-03T14:09:35;96717.59;;;8.83;40.17
13604;BME280;24578;48.264;11.436;2023-04-03T14:12:57;96710.31;;;8.90;40.67
13604;BME280;24578;48.264;11.436;2023-04-03T14:16:27;96713.19;;;9.00;41.85
13604;BME280;24578;48.264;11.436;2023-04-03T14:19:52;96709.81;;;8.69;40.35
13604;BME280;24578;48.264;11.436;2023-04-03T14:23:14;96714.50;;;8.46;39.10
13604;BME280;24578;48.264;11.436;2023-04-03T14:26:36;96711.19;;;8.28;40.71
13604;BME280;24578;48.264;11.436;2023-04-03T14:29:59;96713.19;;;8.23;39.27
13604;BME280;24578;48.264;11.436;2023-04-03T14:33:21;96705.09;;;8.29;40.07
13604;BME280;24578;48.264;11.436;2023-04-03T14:36:44;96711.06;;;8.46;40.16
13604;BME280;24578;48.264;11.436;2023-04-03T14:40:11;96714.16;;;8.52;40.34
13604;BME280;24578;48.264;11.436;2023-04-03T14:43:34;96706.34;;;8.38;40.12
13604;BME280;24578;48.264;11.436;2023-04-03T14:46:55;96704.16;;;8.93;38.98
13604;BME280;24578;48.264;11.436;2023-04-03T14:50:24;96700.03;;;9.19;37.01
13604;BME280;24578;48.264;11.436;2023-04-03T14:53:47;96698.13;;;9.37;36.79
13604;BME280;24578;48.264;11.436;2023-04-03T14:57:14;96697.94;;;9.55;35.62
13604;BME280;24578;48.264;11.436;2023-04-03T15:00:36;96696.09;;;9.57;35.99
13604;BME280;24578;48.264;11.436;2023-04-03T15:03:58;96684.72;;;9.45;35.68
13604;BME280;24578;48.264;11.436;2023-04-03T15:07:20;96705.75;;;9.24;35.58
13604;BME280;24578;48.264;11.436;2023-04-03T15:10:42;96707.50;;;8.64;34.67
13604;BME280;24578;48.264;11.436;2023-04-03T15:14:05;96703.88;;;8.04;35.53
13604;BME280;24578;48.264;11.436;2023-04-03T15:17:26;96712.78;;;7.83;35.25
13604;BME280;24578;48.264;11.436;2023-04-03T15:20:49;96713.09;;;7.60;36.16
13604;BME280;24578;48.264;11.436;2023-04-03T15:24:11;96702.81;;;7.43;36.17
13604;BME280;24578;48.264;11.436;2023-04-03T15:27:34;96713.97;;;7.43;39.15
13604;BME280;24578;48.264;11.436;2023-04-03T15:30:57;96723.28;;;7.46;37.58
13604;BME280;24578;48.264;11.436;2023-04-03T15:34:19;96721.22;;;7.19;37.86
13604;BME280;24578;48.264;11.436;2023-04-03T15:37:42;96714.28;;;7.04;37.18
13604;BME280;24578;48.264;11.436;2023-04-03T15:41:05;96721.38;;;6.81;37.34
13604;BME280;24578;48.264;11.436;2023-04-03T15:44:27;96714.88;;;6.56;38.09
13604;BME280;24578;48.264;11.436;2023-04-03T15:47:50;96724.50;;;6.52;37.86
13604;BME280;24578;48.264;11.436;2023-04-03T15:51:13;96716.59;;;6.38;36.39
13604;BME280;24578;48.264;11.436;2023-04-03T15:54:35;96728.53;;;6.21;37.61
13604;BME280;24578;48.264;11.436;2023-04-03T15:57:57;96724.78;;;6.09;39.09
13604;BME280;24578;48.264;11.436;2023-04-03T16:01:20;96720.31;;;5.94;39.33
13604;BME280;24578;48.264;11.436;2023-04-03T16:04:42;96731.28;;;5.78;39.58
13604;BME280;24578;48.264;11.436;2023-04-03T16:08:05;96725.47;;;5.75;40.14
13604;BME280;24578;48.264;11.436;2023-04-03T16:11:29;96734.06;;;5.74;40.18
13604;BME280;24578;48.264;11.436;2023-04-03T16:14:51;96722.84;;;5.56;40.20
13604;BME280;24578;48.264;11.436;2023-04-03T16:18:13;96739.72;;;5.61;40.81
13604;BME280;24578;48.264;11.436;2023-04-03T16:21:35;96739.31;;;5.52;40.54
13604;BME280;24578;48.264;11.436;2023-04-03T16:24:57;96748.25;;;5.43;40.94
13604;BME280;24578;48.264;11.436;2023-04-03T16:28:18;96745.88;;;5.38;39.63
13604;BME280;24578;48.264;11.436;2023-04-03T16:31:41;96734.78;;;5.17;40.06
13604;BME280;24578;48.264;11.436;2023-04-03T16:35:03;96752.25;;;5.09;41.18
13604;BME280;24578;48.264;11.436;2023-04-03T16:38:25;96750.34;;;4.93;42.28
13604;BME280;24578;48.264;11.436;2023-04-03T16:41:48;96754.03;;;4.86;43.38
13604;BME280;24578;48.264;11.436;2023-04-03T16:45:12;96754.75;;;4.69;43.33
13604;BME280;24578;48.264;11.436;2023-04-03T16:48:34;96758.38;;;4.63;43.89
13604;BME280;24578;48.264;11.436;2023-04-03T16:52:05;96761.44;;;4.51;43.86
13604;BME280;24578;48.264;11.436;2023-04-03T16:55:42;96757.03;;;4.54;44.27
13604;BME280;24578;48.264;11.436;2023-04-03T16:59:04;96756.19;;;4.32;45.03
13604;BME280;24578;48.264;11.436;2023-04-03T17:02:25;96762.47;;;4.24;46.95
13604;BME280;24578;48.264;11.436;2023-04-03T17:06:10;96773.03;;;4.15;46.77
13604;BME280;24578;48.264;11.436;2023-04-03T17:09:48;96766.25;;;4.14;45.46
13604;BME280;24578;48.264;11.436;2023-04-03T17:13:10;96769.25;;;4.03;45.95
13604;BME280;24578;48.264;11.436;2023-04-03T17:16:35;96769.81;;;3.88;46.14
13604;BME280;24578;48.264;11.436;2023-04-03T17:19:59;96766.75;;;3.78;47.58
13604;BME280;24578;48.264;11.436;2023-04-03T17:23:23;96778.34;;;3.63;48.27
13604;BME280;24578;48.264;11.436;2023-04-03T17:26:46;96774.28;;;3.57;48.71
13604;BME280;24578;48.264;11.436;2023-04-03T17:30:08;96782.66;;;3.62;49.06
13604;BME280;24578;48.264;11.436;2023-04-03T17:33:31;96777.97;;;3.50;50.74
13604;BME280;24578;48.264;11.436;2023-04-03T17:36:53;96784.00;;;3.49;50.44
13604;BME280;24578;48.264;11.436;2023-04-03T17:40:15;96793.88;;;3.34;49.67
13604;BME280;24578;48.264;11.436;2023-04-03T17:43:39;96782.63;;;3.13;51.32
13604;BME280;24578;48.264;11.436;2023-04-03T17:47:00;96789.38;;;3.16;49.90
13604;BME280;24578;48.264;11.436;2023-04-03T17:50:23;96787.06;;;3.08;50.88
13604;BME280;24578;48.264;11.436;2023-04-03T17:53:51;96789.03;;;3.00;51.95
13604;BME280;24578;48.264;11.436;2023-04-03T17:57:12;96792.94;;;2.85;51.87
13604;BME280;24578;48.264;11.436;2023-04-03T18:00:35;96791.19;;;2.87;53.11
13604;BME280;24578;48.264;11.436;2023-04-03T18:03:59;96797.44;;;2.77;53.39
13604;BME280;24578;48.264;11.436;2023-04-03T18:07:23;96793.53;;;2.66;54.22
13604;BME280;24578;48.264;11.436;2023-04-03T18:10:45;96802.03;;;2.67;54.58
13604;BME280;24578;48.264;11.436;2023-04-03T18:14:08;96810.13;;;2.53;55.03
13604;BME280;24578;48.264;11.436;2023-04-03T18:17:30;96801.69;;;2.51;55.10
13604;BME280;24578;48.264;11.436;2023-04-03T18:20:53;96807.75;;;2.47;55.83
13604;BME280;24578;48.264;11.436;2023-04-03T18:24:17;96807.91;;;2.42;55.46
13604;BME280;24578;48.264;11.436;2023-04-03T18:27:42;96815.94;;;2.30;55.99
13604;BME280;24578;48.264;11.436;2023-04-03T18:31:07;96805.34;;;2.13;56.77
13604;BME280;24578;48.264;11.436;2023-04-03T18:34:31;96819.78;;;2.15;58.55
13604;BME280;24578;48.264;11.436;2023-04-03T18:37:53;96821.59;;;2.11;59.02
13604;BME280;24578;48.264;11.436;2023-04-03T18:41:15;96829.63;;;1.97;60.23
13604;BME280;24578;48.264;11.436;2023-04-03T18:44:38;96825.53;;;1.93;61.47
13604;BME280;24578;48.264;11.436;2023-04-03T18:48:02;96828.69;;;2.01;61.43
13604;BME280;24578;48.264;11.436;2023-04-03T18:51:24;96833.84;;;2.00;61.81
13604;BME280;24578;48.264;11.436;2023-04-03T18:54:46;96839.75;;;2.02;62.54
13604;BME280;24578;48.264;11.436;2023-04-03T18:58:08;96838.63;;;2.10;62.45
13604;BME280;24578;48.264;11.436;2023-04-03T19:01:30;96832.47;;;2.18;60.85
13604;BME280;24578;48.264;11.436;2023-04-03T19:04:52;96832.53;;;2.16;61.19
13604;BME280;24578;48.264;11.436;2023-04-03T19:08:14;96839.19;;;2.20;61.29
13604;BME280;24578;48.264;11.436;2023-04-03T19:11:36;96842.91;;;2.10;59.62
13604;BME280;24578;48.264;11.436;2023-04-03T19:14:58;96842.09;;;2.09;60.69
13604;BME280;24578;48.264;11.436;2023-04-03T19:18:20;96849.75;;;2.09;59.38
13604;BME280;24578;48.264;11.436;2023-04-03T19:21:41;96842.00;;;1.81;60.52
13604;BME280;24578;48.264;11.436;2023-04-03T19:25:04;96853.03;;;1.81;63.08